Time;durP1;ratioP1;P1;durP2;ratioP2;P2;SDS_P1;SDS_P2;PMS_P1;PMS_P2;Temp;Humidity;BMP_temperature;BMP_pressure;BME280_temperature;BME280_humidity;BME280_pressure;Samples;Min_cycle;Max_cycle;Signal;HPM_P1;HPM_P2
2022/06/05 00:01:36;;;;;;;11.57;8.63;;;12.40;99.90;;;;;;5019415;28;20053;-86
2022/06/05 00:04:02;;;;;;;;;;;12.50;99.90;;;;;;5011708;28;20048;-85
2022/06/05 00:06:31;;;;;;;10.68;8.00;;;12.40;99.90;;;;;;5004411;28;19932;-86
2022/06/05 00:09:06;;;;;;;9.85;8.25;;;12.40;99.90;;;;;;5000517;28;20041;-87
2022/06/05 00:11:54;;;;;;;10.25;8.23;;;12.30;99.90;;;;;;5005633;28;20049;-86
2022/06/05 00:14:21;;;;;;;14.05;8.57;;;12.40;99.90;;;;;;4998502;28;20140;-86
2022/06/05 00:16:47;;;;;;;12.80;8.88;;;12.40;99.90;;;;;;4999364;28;20056;-86
2022/06/05 00:19:16;;;;;;;14.77;9.18;;;12.40;99.90;;;;;;5003569;28;20048;-86
2022/06/05 00:21:42;;;;;;;11.07;8.77;;;12.40;99.90;;;;;;5017987;28;20065;-86
2022/06/05 00:24:08;;;;;;;14.07;8.50;;;12.40;99.90;;;;;;5001181;28;20045;-86
2022/06/05 00:26:43;;;;;;;13.35;8.35;;;12.40;99.90;;;;;;5001180;28;20036;-86
2022/06/05 00:29:45;;;;;;;14.70;9.65;;;12.40;99.90;;;;;;5017215;28;20049;-85
2022/06/05 00:32:21;;;;;;;14.60;7.60;;;12.40;99.90;;;;;;4976269;28;20464;-85
2022/06/05 00:34:47;;;;;;;12.65;9.05;;;12.40;99.90;;;;;;5017852;28;20092;-86
2022/06/05 00:37:20;;;;;;;13.18;9.45;;;12.50;99.90;;;;;;4986611;28;20403;-85
2022/06/05 00:40:05;;;;;;;13.65;9.23;;;12.40;99.90;;;;;;5020856;28;20044;-86
2022/06/05 00:42:32;;;;;;;;;;;12.50;99.90;;;;;;5017319;28;20055;-86
2022/06/05 00:45:05;;;;;;;11.85;8.57;;;12.40;99.90;;;;;;5016742;28;19923;-86
2022/06/05 00:47:33;;;;;;;12.98;9.23;;;12.30;99.90;;;;;;5016955;28;20048;-86
2022/06/05 00:50:14;;;;;;;14.88;9.70;;;12.30;99.90;;;;;;4999612;28;20056;-86
2022/06/05 00:52:43;;;;;;;15.13;9.55;;;12.50;99.90;;;;;;5023217;28;20143;-86
2022/06/05 00:55:13;;;;;;;13.68;9.85;;;12.50;99.90;;;;;;5020364;28;20053;-86
2022/06/05 00:57:42;;;;;;;13.50;9.27;;;12.30;99.90;;;;;;5016809;28;20048;-85
2022/06/05 01:00:16;;;;;;;14.60;9.93;;;12.40;99.90;;;;;;5037202;28;20467;-86
2022/06/05 01:02:45;;;;;;;15.45;10.73;;;12.40;99.90;;;;;;5021031;28;20081;-86
2022/06/05 01:05:13;;;;;;;13.55;9.73;;;12.40;99.90;;;;;;5021134;28;20055;-86
2022/06/05 01:07:39;;;;;;;17.98;10.35;;;12.40;99.90;;;;;;5020734;28;20045;-86
2022/06/05 01:10:06;;;;;;;15.38;10.70;;;12.30;99.90;;;;;;4988887;28;20064;-86
2022/06/05 01:13:06;;;;;;;14.38;10.15;;;12.40;99.90;;;;;;5020483;28;20575;-86
2022/06/05 01:15:41;;;;;;;13.65;10.00;;;12.40;99.90;;;;;;5022016;28;20041;-86
2022/06/05 01:18:30;;;;;;;16.45;9.80;;;12.40;99.90;;;;;;5021409;28;20049;-85
2022/06/05 01:21:08;;;;;;;14.27;9.27;;;12.50;99.90;;;;;;5024142;28;20133;-85
2022/06/05 01:23:49;;;;;;;15.07;10.18;;;12.50;99.90;;;;;;5021559;28;20044;-85
2022/06/05 01:26:37;;;;;;;14.32;10.07;;;12.50;99.90;;;;;;5021133;28;20490;-87
2022/06/05 01:29:15;;;;;;;14.95;9.90;;;12.50;99.90;;;;;;5020123;28;20132;-86
2022/06/05 01:31:56;;;;;;;13.65;9.75;;;12.60;99.90;;;;;;5022606;28;20037;-86
2022/06/05 01:34:40;;;;;;;14.77;8.15;;;12.60;99.90;;;;;;5022107;28;20150;-86
2022/06/05 01:37:14;;;;;;;14.38;9.85;;;12.60;99.90;;;;;;5021243;28;20076;-87
2022/06/05 01:40:06;;;;;;;13.45;9.38;;;12.60;99.90;;;;;;5020522;28;20053;-85
2022/06/05 01:42:57;;;;;;;14.10;8.95;;;12.80;99.90;;;;;;5020367;28;20055;-85
2022/06/05 01:45:44;;;;;;;14.32;9.77;;;12.70;99.90;;;;;;5021982;28;20519;-85
2022/06/05 01:48:20;;;;;;;13.90;9.68;;;12.90;99.90;;;;;;5020173;28;20060;-86
2022/06/05 01:50:50;;;;;;;14.90;9.45;;;12.80;99.90;;;;;;5023235;28;20049;-85
2022/06/05 01:53:19;;;;;;;15.10;10.10;;;12.70;99.90;;;;;;5019982;28;20044;-86
2022/06/05 01:56:04;;;;;;;18.77;9.32;;;12.80;99.90;;;;;;5020022;28;20388;-86
2022/06/05 01:58:40;;;;;;;13.05;8.98;;;12.90;99.90;;;;;;5019681;28;20413;-85
2022/06/05 02:01:19;;;;;;;16.52;8.65;;;12.90;99.90;;;;;;5020254;28;20049;-85
2022/06/05 02:03:54;;;;;;;14.90;9.68;;;13.00;99.90;;;;;;5020018;28;20389;-85
2022/06/05 02:06:32;;;;;;;12.27;8.93;;;13.00;99.90;;;;;;5020990;28;20044;-85
2022/06/05 02:09:13;;;;;;;14.40;9.32;;;13.10;99.90;;;;;;5020337;28;20040;-86
2022/06/05 02:11:39;;;;;;;13.98;9.35;;;13.10;99.90;;;;;;5019518;28;20045;-86
2022/06/05 02:14:13;;;;;;;18.60;9.60;;;13.00;99.90;;;;;;5005712;28;20048;-86
2022/06/05 02:16:40;;;;;;;17.80;9.48;;;13.10;99.90;;;;;;4988360;28;20055;-86
2022/06/05 02:19:14;;;;;;;13.75;9.30;;;13.00;99.90;;;;;;5018817;28;20059;-86
2022/06/05 02:21:40;;;;;;;17.10;9.18;;;13.10;99.90;;;;;;5018889;28;20060;-86
2022/06/05 02:24:08;;;;;;;12.90;9.23;;;13.20;99.90;;;;;;4989002;28;20109;-86
2022/06/05 02:26:34;;;;;;;15.00;9.68;;;13.10;99.90;;;;;;5003490;28;20053;-86
2022/06/05 02:29:16;;;;;;;13.05;9.45;;;13.20;99.90;;;;;;5003457;28;20052;-85
2022/06/05 02:32:01;;;;;;;16.10;10.27;;;13.30;99.90;;;;;;5021365;28;20105;-86
2022/06/05 02:35:00;;;;;;;15.75;9.95;;;13.20;99.90;;;;;;5019428;28;20560;-85
2022/06/05 02:37:45;;;;;;;12.52;8.80;;;13.30;99.90;;;;;;5021584;28;20049;-86
2022/06/05 02:40:53;;;;;;;13.82;9.48;;;13.40;99.90;;;;;;5020404;28;20508;-85
2022/06/05 02:47:14;;;;;;;13.13;9.27;;;13.60;99.90;;;;;;5040913;28;20053;-87
2022/06/05 02:49:55;;;;;;;14.57;10.10;;;13.60;99.90;;;;;;5027295;28;20053;-86
2022/06/05 02:52:22;;;;;;;16.17;10.45;;;13.50;99.90;;;;;;5024562;28;20052;-86
2022/06/05 02:54:57;;;;;;;14.90;10.63;;;13.60;99.90;;;;;;5007346;28;20041;-86
2022/06/05 02:57:23;;;;;;;13.93;10.48;;;13.70;99.90;;;;;;5022761;28;20583;-86
2022/06/05 02:59:51;;;;;;;11.70;10.02;;;13.70;99.90;;;;;;4990436;28;20044;-86
2022/06/05 03:05:07;;;;;;;18.23;10.60;;;13.50;99.90;;;;;;5021922;28;20053;-86
2022/06/05 03:07:33;;;;;;;20.20;11.07;;;13.60;99.90;;;;;;5003250;28;20052;-85
2022/06/05 03:09:59;;;;;;;21.75;10.98;;;13.60;99.90;;;;;;5010332;28;20045;-85
2022/06/05 03:12:25;;;;;;;15.43;9.60;;;13.40;99.90;;;;;;5022662;28;20045;-86
2022/06/05 03:14:56;;;;;;;17.83;10.60;;;13.40;99.90;;;;;;5002244;28;20047;-86
2022/06/05 03:17:23;;;;;;;17.65;10.48;;;13.50;99.90;;;;;;4989515;28;20114;-86
2022/06/05 03:19:49;;;;;;;19.55;12.02;;;13.60;99.90;;;;;;5021877;28;20132;-86
2022/06/05 03:22:15;;;;;;;17.40;11.15;;;13.50;99.90;;;;;;4985968;28;20445;-85
2022/06/05 03:24:40;;;;;;;19.65;11.25;;;13.70;99.90;;;;;;4987094;28;20140;-85
2022/06/05 03:27:07;;;;;;;15.73;10.23;;;13.60;99.90;;;;;;5003385;28;20049;-86
2022/06/05 03:29:32;;;;;;;18.75;11.50;;;13.50;99.90;;;;;;4986128;28;20049;-85
2022/06/05 03:31:58;;;;;;;17.65;11.60;;;13.70;99.90;;;;;;5001629;28;20534;-86
2022/06/05 03:34:25;;;;;;;16.20;10.15;;;13.80;99.90;;;;;;4985550;28;20401;-86
2022/06/05 03:36:50;;;;;;;18.15;11.48;;;13.60;99.90;;;;;;5007053;28;20045;-85
2022/06/05 03:39:16;;;;;;;18.92;11.27;;;13.60;99.90;;;;;;5004261;28;20059;-86
2022/06/05 03:41:42;;;;;;;18.13;11.73;;;13.80;99.90;;;;;;5002675;28;20061;-86
2022/06/05 03:44:09;;;;;;;16.27;10.85;;;13.90;99.90;;;;;;4985991;28;20060;-86
2022/06/05 03:46:39;;;;;;;14.57;10.25;;;13.70;99.90;;;;;;5001839;28;20037;-86
2022/06/05 03:49:07;;;;;;;14.45;10.75;;;13.90;99.90;;;;;;5017286;28;20047;-86
2022/06/05 03:51:33;;;;;;;16.23;10.90;;;13.80;99.90;;;;;;5000932;28;20056;-87
2022/06/05 03:54:02;;;;;;;14.95;10.93;;;14.00;99.90;;;;;;5017528;28;20520;-86
2022/06/05 03:56:29;;;;;;;17.23;10.40;;;13.90;99.90;;;;;;5002135;28;20087;-85
2022/06/05 03:58:58;;;;;;;16.00;10.23;;;13.80;99.90;;;;;;5001660;28;20052;-86
2022/06/05 04:01:27;;;;;;;13.38;9.60;;;13.90;99.90;;;;;;5017673;28;20408;-86
2022/06/05 04:03:56;;;;;;;19.35;11.25;;;14.60;99.90;;;;;;5016790;28;20041;-86
2022/06/05 04:06:28;;;;;;;17.15;11.15;;;14.00;99.90;;;;;;5000986;28;20482;-86
2022/06/05 04:08:59;;;;;;;19.30;11.30;;;14.10;99.90;;;;;;5019249;28;20072;-85
2022/06/05 04:11:26;;;;;;;15.98;10.38;;;14.00;99.90;;;;;;5017126;28;20045;-86
2022/06/05 04:13:55;;;;;;;17.55;10.82;;;14.00;99.90;;;;;;5011240;28;20044;-95
2022/06/05 04:16:24;;;;;;;17.15;9.93;;;14.20;99.90;;;;;;5020661;28;20045;-94
2022/06/05 04:18:51;;;;;;;15.43;10.05;;;14.20;99.90;;;;;;5033150;28;20052;-93
2022/06/05 04:21:20;;;;;;;15.15;10.55;;;14.20;99.90;;;;;;5008593;28;20064;-92
2022/06/05 04:23:50;;;;;;;13.43;10.32;;;14.30;99.90;;;;;;5022882;28;20052;-94
2022/06/05 04:26:20;;;;;;;17.75;11.10;;;14.30;99.90;;;;;;5023250;28;20048;-94
2022/06/05 04:28:46;;;;;;;17.25;10.35;;;14.40;99.90;;;;;;5023676;28;20059;-95
2022/06/05 04:31:25;;;;;;;16.15;10.48;;;14.30;99.90;;;;;;4997007;28;20044;-95
2022/06/05 04:33:53;;;;;;;17.65;10.73;;;14.30;99.90;;;;;;5025223;28;20519;-94
2022/06/05 04:36:20;;;;;;;17.48;10.55;;;14.40;99.90;;;;;;5010200;28;20104;-94
2022/06/05 04:38:48;;;;;;;17.77;10.07;;;14.40;99.90;;;;;;5009703;28;20049;-95
2022/06/05 04:41:21;;;;;;;13.70;10.00;;;14.50;99.90;;;;;;5008502;28;20198;-93
2022/06/05 04:43:48;;;;;;;18.40;10.45;;;14.80;99.90;;;;;;5021435;28;20147;-94
2022/06/05 04:46:16;;;;;;;16.10;9.93;;;14.90;99.90;;;;;;4989202;28;20139;-93
2022/06/05 04:48:42;;;;;;;16.05;11.48;;;14.70;99.90;;;;;;5021588;28;20045;-94
2022/06/05 04:51:10;;;;;;;14.48;10.20;;;15.00;99.90;;;;;;5004368;28;20041;-94
2022/06/05 04:53:36;;;;;;;17.27;10.75;;;15.20;99.90;;;;;;5006611;28;20056;-95
2022/06/05 04:56:08;;;;;;;15.88;10.40;;;15.10;99.90;;;;;;5021524;28;20051;-93
2022/06/05 04:58:34;;;;;;;16.10;10.35;;;15.00;99.90;;;;;;5021666;28;20064;-93
2022/06/05 05:01:00;;;;;;;16.55;10.70;;;15.30;99.90;;;;;;5006444;28;20135;-95
2022/06/05 05:03:26;;;;;;;15.68;11.05;;;15.10;99.90;;;;;;4990249;28;20048;-95
2022/06/05 05:05:53;;;;;;;15.73;11.13;;;15.10;99.90;;;;;;5006187;28;20075;-95
2022/06/05 05:08:19;;;;;;;18.40;10.98;;;15.10;99.90;;;;;;4990816;28;20269;-94
2022/06/05 05:10:45;;;;;;;16.88;10.88;;;15.00;99.90;;;;;;5024551;28;20053;-94
2022/06/05 05:13:11;;;;;;;14.05;10.15;;;15.10;99.90;;;;;;5025180;28;20049;-95
2022/06/05 05:15:37;;;;;;;18.20;9.80;;;15.20;99.90;;;;;;4989097;28;20045;-94
2022/06/05 05:18:03;;;;;;;14.88;10.32;;;15.40;99.90;;;;;;5022464;28;20084;-95
2022/06/05 05:20:29;;;;;;;15.32;10.07;;;15.10;99.90;;;;;;4989752;28;20053;-95
2022/06/05 05:22:55;;;;;;;14.57;10.55;;;15.10;99.90;;;;;;4998074;28;20060;-93
2022/06/05 05:25:22;;;;;;;16.95;10.77;;;15.20;99.90;;;;;;5008388;28;20041;-94
2022/06/05 05:27:48;;;;;;;13.77;10.30;;;15.30;99.90;;;;;;4992760;28;20041;-93
2022/06/05 05:30:14;;;;;;;18.17;11.27;;;15.30;99.90;;;;;;5011507;28;20049;-94
2022/06/05 05:32:40;;;;;;;16.48;10.93;;;15.40;99.90;;;;;;5012802;28;20471;-94
2022/06/05 05:35:07;;;;;;;14.70;10.20;;;15.10;99.90;;;;;;4997119;28;20103;-93
2022/06/05 05:37:33;;;;;;;16.73;10.77;;;15.10;99.90;;;;;;5030080;28;20140;-96
2022/06/05 05:42:47;;;;;;;12.77;10.40;;;15.40;99.90;;;;;;5012772;28;20048;-95
2022/06/05 05:45:14;;;;;;;16.20;10.15;;;15.20;99.90;;;;;;5014301;28;20055;-95
2022/06/05 05:47:40;;;;;;;16.50;11.43;;;15.50;99.90;;;;;;5013777;28;20544;-94
2022/06/05 05:50:13;;;;;;;13.07;9.80;;;15.60;99.90;;;;;;5005373;28;20060;-95
2022/06/05 05:52:40;;;;;;;14.00;9.93;;;15.40;99.90;;;;;;5014908;28;20520;-95
2022/06/05 05:55:07;;;;;;;11.27;9.50;;;15.60;99.90;;;;;;4994490;28;20128;-95
2022/06/05 05:57:33;;;;;;;12.25;9.30;;;15.60;99.90;;;;;;4976516;28;20053;-94
2022/06/05 05:59:59;;;;;;;14.23;9.88;;;15.60;99.90;;;;;;4980256;28;20496;-93
2022/06/05 06:02:26;;;;;;;10.48;8.13;;;14.80;99.90;;;;;;4990097;28;20453;-94
2022/06/05 06:04:52;;;;;;;11.50;9.20;;;15.60;99.90;;;;;;4994158;28;20045;-93
2022/06/05 06:07:19;;;;;;;12.40;9.75;;;15.40;99.90;;;;;;5013087;28;20417;-92
2022/06/05 06:09:46;;;;;;;11.60;8.93;;;15.60;99.90;;;;;;5010644;28;20052;-94
2022/06/05 06:12:12;;;;;;;12.55;8.82;;;15.50;99.90;;;;;;5010924;28;20041;-94
2022/06/05 06:14:40;;;;;;;11.93;9.02;;;15.70;99.90;;;;;;4993202;28;20096;-94
2022/06/05 06:17:06;;;;;;;12.32;9.68;;;15.00;99.90;;;;;;4995812;28;20123;-94
2022/06/05 06:19:32;;;;;;;11.60;9.18;;;15.40;99.90;;;;;;4981514;28;20045;-93
2022/06/05 06:21:58;;;;;;;12.88;9.52;;;15.30;99.90;;;;;;4994368;28;20045;-94
2022/06/05 06:24:27;;;;;;;12.75;8.93;;;15.40;99.90;;;;;;4976167;28;20196;-95
2022/06/05 06:26:53;;;;;;;11.05;9.10;;;15.30;99.90;;;;;;5002923;28;20053;-86
2022/06/05 06:29:19;;;;;;;13.00;9.65;;;15.30;99.90;;;;;;4967341;28;20045;-86
2022/06/05 06:31:45;;;;;;;12.27;9.40;;;15.40;99.90;;;;;;4967421;28;20132;-86
2022/06/05 06:34:13;;;;;;;11.60;9.38;;;15.50;99.90;;;;;;4968618;28;20477;-86
2022/06/05 06:36:39;;;;;;;13.38;9.30;;;15.50;99.90;;;;;;4985048;28;20053;-89
2022/06/05 06:39:08;;;;;;;10.52;9.05;;;15.60;99.90;;;;;;4985164;28;20099;-86
2022/06/05 06:41:34;;;;;;;11.77;9.35;;;15.50;99.90;;;;;;5001393;28;20104;-86
2022/06/05 06:44:03;;;;;;;13.07;9.10;;;15.70;99.90;;;;;;4984143;28;20512;-87
2022/06/05 06:46:30;;;;;;;10.68;8.77;;;15.70;99.90;;;;;;5000212;28;20081;-86
2022/06/05 06:48:59;;;;;;;9.93;8.82;;;15.80;99.90;;;;;;4985274;28;20112;-84
2022/06/05 06:51:24;;;;;;;11.63;9.50;;;15.70;99.90;;;;;;4984007;28;20049;-84
2022/06/05 06:53:50;;;;;;;12.88;8.98;;;15.90;99.90;;;;;;4968414;28;20145;-90
2022/06/05 06:56:20;;;;;;;10.93;9.18;;;16.00;99.90;;;;;;4982206;28;20053;-86
2022/06/05 06:58:46;;;;;;;13.00;9.60;;;16.10;99.90;;;;;;5000288;28;20046;-87
2022/06/05 07:01:13;;;;;;;10.88;9.48;;;16.10;99.90;;;;;;4968040;28;20464;-86
2022/06/05 07:03:39;;;;;;;11.05;8.82;;;16.10;99.90;;;;;;5005874;28;20187;-86
2022/06/05 07:06:09;;;;;;;11.55;9.45;;;16.30;99.90;;;;;;4983122;28;20104;-85
2022/06/05 07:08:35;;;;;;;12.25;9.05;;;16.30;99.90;;;;;;4998946;28;20046;-85
2022/06/05 07:11:05;;;;;;;10.77;8.95;;;16.20;99.90;;;;;;4984478;28;20045;-84
2022/06/05 07:14:16;;;;;;;13.32;10.50;;;16.30;99.90;;;;;;4992425;28;20053;-86
2022/06/05 07:17:17;;;;;;;10.73;9.50;;;16.40;99.90;;;;;;5030223;28;20045;-86
2022/06/05 07:24:01;;;;;;;11.85;9.45;;;16.90;99.90;;;;;;5034788;28;20115;-86
2022/06/05 07:26:49;;;;;;;10.35;8.98;;;17.00;99.90;;;;;;4989231;28;20046;-86
2022/06/05 07:29:16;;;;;;;10.18;9.15;;;17.10;99.90;;;;;;4962926;28;20138;-84
2022/06/05 07:31:42;;;;;;;10.18;8.23;;;17.00;99.90;;;;;;4946893;28;20522;-84
2022/06/05 07:34:10;;;;;;;9.95;8.60;;;17.20;99.90;;;;;;4968853;28;20530;-84
2022/06/05 07:36:38;;;;;;;9.73;7.72;;;17.40;99.90;;;;;;4950557;28;20122;-85
2022/06/05 07:39:05;;;;;;;10.88;8.52;;;17.40;99.90;;;;;;4962789;28;20466;-86
2022/06/05 07:41:36;;;;;;;9.57;8.35;;;17.50;99.90;;;;;;4966467;28;20133;-86
2022/06/05 07:44:03;;;;;;;9.27;8.15;;;17.60;99.90;;;;;;4967925;28;20050;-86
2022/06/05 07:46:32;;;;;;;10.93;8.85;;;17.70;99.90;;;;;;4948261;28;20061;-84
2022/06/05 07:49:03;;;;;;;8.98;8.02;;;17.60;99.90;;;;;;4964064;28;20050;-85
2022/06/05 07:54:34;;;;;;;8.98;8.05;;;17.80;99.90;;;;;;4965390;28;20093;-86
2022/06/05 07:57:14;;;;;;;9.80;8.45;;;18.10;99.90;;;;;;4964925;28;20061;-86
2022/06/05 07:59:43;;;;;;;9.25;8.00;;;18.30;99.90;;;;;;4963699;28;20050;-86
2022/06/05 08:02:14;;;;;;;9.13;6.50;;;18.40;99.90;;;;;;4982421;28;20054;-87
2022/06/05 08:04:42;;;;;;;8.90;7.75;;;18.40;99.90;;;;;;4969941;28;20051;-87
2022/06/05 08:07:10;;;;;;;8.90;7.80;;;18.60;99.90;;;;;;4952907;28;20068;-87
2022/06/05 08:09:41;;;;;;;8.93;7.85;;;18.80;99.90;;;;;;4961355;28;20498;-87
2022/06/05 08:12:09;;;;;;;8.25;7.40;;;18.90;99.90;;;;;;4968074;28;20089;-85
2022/06/05 08:14:36;;;;;;;8.77;7.85;;;18.90;99.90;;;;;;4950225;28;20505;-85
2022/06/05 08:17:05;;;;;;;8.85;7.30;;;19.10;99.90;;;;;;4993665;28;20049;-85
2022/06/05 08:19:31;;;;;;;7.93;7.13;;;19.40;99.90;;;;;;5026035;28;20054;-86
2022/06/05 08:21:58;;;;;;;7.28;6.40;;;19.40;99.90;;;;;;4988880;28;20056;-86
2022/06/05 08:24:26;;;;;;;9.25;7.43;;;19.50;99.90;;;;;;4994062;28;20135;-85
2022/06/05 08:26:53;;;;;;;8.43;6.70;;;19.70;99.90;;;;;;5009860;28;20472;-87
2022/06/05 08:29:25;;;;;;;9.15;6.47;;;19.70;99.90;;;;;;4990861;28;20045;-86
2022/06/05 08:31:53;;;;;;;8.13;7.03;;;19.80;99.90;;;;;;5009977;28;20045;-86
2022/06/05 08:34:20;;;;;;;8.48;7.10;;;19.80;99.90;;;;;;4991252;28;20053;-87
2022/06/05 08:36:50;;;;;;;7.60;6.60;;;19.80;99.90;;;;;;4988808;28;20127;-86
2022/06/05 08:42:36;;;;;;;7.78;7.00;;;20.00;99.90;;;;;;5006826;28;20058;-87
2022/06/05 08:45:23;;;;;;;8.07;6.80;;;19.90;99.90;;;;;;5002642;28;20045;-85
2022/06/05 08:48:02;;;;;;;7.57;6.78;;;20.20;99.90;;;;;;5004036;28;20535;-86
2022/06/05 08:50:49;;;;;;;7.45;6.70;;;20.20;99.90;;;;;;5002281;28;20501;-85
2022/06/05 08:53:36;;;;;;;8.68;6.88;;;20.30;99.90;;;;;;5002941;28;20064;-88
2022/06/05 08:56:05;;;;;;;7.43;6.60;;;20.40;99.90;;;;;;5007568;28;20049;-85
2022/06/05 08:58:39;;;;;;;7.13;6.35;;;20.60;99.90;;;;;;5002056;28;20105;-86
2022/06/05 09:01:21;;;;;;;;;;;20.60;99.90;;;;;;5019265;28;20084;-86
2022/06/05 09:03:56;;;;;;;7.53;6.40;;;20.70;99.90;;;;;;5005185;28;20292;-88
2022/06/05 09:06:39;;;;;;;6.55;5.82;;;20.90;99.90;;;;;;5000035;28;20049;-86
2022/06/05 09:09:13;;;;;;;8.55;6.43;;;20.70;99.90;;;;;;5002599;28;20052;-86
2022/06/05 09:12:14;;;;;;;6.20;5.57;;;20.60;99.90;;;;;;5000890;28;20060;-87
2022/06/05 09:15:05;;;;;;;6.78;6.07;;;20.60;99.90;;;;;;5003944;28;20536;-86
2022/06/05 09:17:33;;;;;;;6.75;5.93;;;20.70;99.90;;;;;;5004715;28;20060;-86
2022/06/05 09:19:59;;;;;;;6.75;6.07;;;20.70;99.90;;;;;;5006421;28;20045;-88
2022/06/05 09:22:32;;;;;;;7.20;6.50;;;20.90;99.90;;;;;;4992303;28;20049;-89
2022/06/05 09:25:30;;;;;;;6.85;6.13;;;20.80;99.90;;;;;;5009241;28;20049;-86
2022/06/05 09:28:41;;;;;;;7.32;6.40;;;20.50;99.90;;;;;;5008181;28;20046;-85
2022/06/05 09:31:25;;;;;;;7.70;6.35;;;20.90;99.90;;;;;;5006453;28;20045;-87
2022/06/05 09:33:59;;;;;;;6.23;5.70;;;20.80;99.90;;;;;;5006511;28;20061;-87
2022/06/05 09:36:28;;;;;;;6.32;5.72;;;21.10;99.90;;;;;;5004310;28;20276;-87
2022/06/05 09:39:16;;;;;;;5.68;5.18;;;21.50;99.90;;;;;;5006311;28;20049;-86
2022/06/05 09:42:00;;;;;;;6.32;5.70;;;21.50;99.90;;;;;;5005932;28;20136;-85
2022/06/05 09:44:45;;;;;;;;;;;21.60;99.90;;;;;;5031619;28;20045;-86
2022/06/05 09:47:26;;;;;;;9.48;5.90;;;21.80;99.90;;;;;;5035011;28;19964;-87
2022/06/05 09:49:59;;;;;;;6.07;5.47;;;22.10;99.90;;;;;;5024409;28;20072;-86
2022/06/05 09:52:30;;;;;;;8.00;5.93;;;21.90;99.90;;;;;;5036010;28;20080;-85
2022/06/05 09:55:06;;;;;;;6.03;5.43;;;22.30;99.90;;;;;;5038222;28;20045;-88
2022/06/05 10:00:41;;;;;;;6.45;5.68;;;22.20;99.90;;;;;;5053322;28;20045;-87
2022/06/05 10:03:35;;;;;;;9.40;6.10;;;22.30;99.90;;;;;;5040868;28;20044;-86
2022/06/05 10:06:29;;;;;;;6.03;5.50;;;22.30;99.90;;;;;;5059253;28;20049;-88
2022/06/05 10:09:11;;;;;;;6.28;5.53;;;22.50;99.90;;;;;;5032787;28;20068;-86
2022/06/05 10:11:57;;;;;;;4.93;4.43;;;22.60;99.90;;;;;;5032220;28;20037;-86
2022/06/05 10:14:44;;;;;;;7.38;6.00;;;22.40;99.90;;;;;;5034462;28;20079;-87
2022/06/05 10:17:47;;;;;;;6.75;5.38;;;22.50;99.90;;;;;;5034848;28;20052;-86
2022/06/05 10:20:16;;;;;;;7.57;5.30;;;22.40;99.90;;;;;;5039404;28;20435;-88
2022/06/05 10:22:56;;;;;;;6.05;5.45;;;22.30;99.90;;;;;;5039025;28;20111;-87
2022/06/05 10:25:42;;;;;;;6.90;5.75;;;22.40;99.90;;;;;;5036610;28;20049;-91
2022/06/05 10:28:21;;;;;;;5.97;5.45;;;22.40;99.90;;;;;;5053420;28;20132;-90
2022/06/05 10:31:17;;;;;;;5.70;5.20;;;22.50;99.90;;;;;;5035374;28;20071;-87
2022/06/05 10:33:49;;;;;;;6.43;5.30;;;22.70;99.90;;;;;;5034221;28;20076;-92
2022/06/05 10:36:34;;;;;;;6.43;5.32;;;24.30;99.90;;;;;;5033830;28;20041;-87
2022/06/05 10:39:21;;;;;;;6.18;5.57;;;23.40;99.90;;;;;;5036376;28;20057;-87
2022/06/05 10:42:28;;;;;;;7.80;5.75;;;23.10;99.90;;;;;;5034040;28;20033;-88
2022/06/05 10:45:09;;;;;;;6.22;5.60;;;23.20;99.90;;;;;;4979527;28;20048;-87
2022/06/05 10:48:08;;;;;;;7.60;6.07;;;23.30;99.90;;;;;;5033059;28;20111;-88
2022/06/05 10:50:45;;;;;;;5.90;5.30;;;23.50;99.90;;;;;;5035850;28;20107;-87
2022/06/05 10:53:31;;;;;;;5.82;5.32;;;23.60;99.90;;;;;;5036957;28;20088;-86
2022/06/05 10:56:22;;;;;;;5.30;4.78;;;23.70;99.90;;;;;;5037078;28;20112;-87
2022/06/05 10:59:06;;;;;;;7.97;5.70;;;23.50;99.90;;;;;;5035791;28;20614;-88
2022/06/05 11:01:45;;;;;;;5.60;5.10;;;23.40;99.90;;;;;;5033111;28;20037;-87
2022/06/05 11:04:24;;;;;;;6.03;5.43;;;23.20;99.90;;;;;;5035399;28;20045;-87
2022/06/05 11:07:12;;;;;;;5.38;4.88;;;23.30;99.90;;;;;;5035580;28;20136;-88
2022/06/05 11:10:14;;;;;;;5.60;5.00;;;23.20;99.90;;;;;;5026640;28;20079;-89
2022/06/05 11:15:49;;;;;;;5.07;4.68;;;23.20;99.90;;;;;;5049318;28;20056;-88
2022/06/05 11:18:43;;;;;;;5.40;4.60;;;23.50;99.90;;;;;;5034938;28;20509;-87
2022/06/05 11:21:10;;;;;;;9.73;4.70;;;23.90;99.90;;;;;;5033026;28;20059;-88
2022/06/05 11:23:41;;;;;;;7.10;4.97;;;24.20;99.90;;;;;;5027216;28;20056;-87
2022/06/05 11:26:52;;;;;;;5.38;4.85;;;23.80;99.90;;;;;;5047893;28;20128;-87
2022/06/05 11:29:39;;;;;;;4.97;4.53;;;23.80;99.90;;;;;;5030178;28;20076;-88
2022/06/05 11:32:39;;;;;;;5.75;5.10;;;24.00;99.90;;;;;;5028853;28;20052;-87
2022/06/05 11:35:28;;;;;;;4.57;4.18;;;23.80;99.90;;;;;;5027344;28;20113;-87
2022/06/05 11:38:04;;;;;;;4.65;4.25;;;23.70;99.90;;;;;;5026355;28;20114;-87
2022/06/05 11:40:49;;;;;;;5.40;4.53;;;23.60;99.90;;;;;;5032557;28;20052;-87
2022/06/05 11:43:28;;;;;;;6.90;4.75;;;23.80;99.90;;;;;;5037221;28;20057;-86
2022/06/05 11:46:19;;;;;;;8.35;4.22;;;23.60;99.90;;;;;;5038978;28;20120;-88
2022/06/05 11:48:55;;;;;;;5.03;4.20;;;23.90;99.90;;;;;;5036414;28;20041;-89
2022/06/05 11:51:33;;;;;;;5.07;4.57;;;23.70;99.90;;;;;;5031461;28;20057;-87
2022/06/05 11:54:35;;;;;;;5.03;4.63;;;23.70;99.90;;;;;;5031829;28;20045;-87
2022/06/05 11:57:14;;;;;;;5.53;4.88;;;23.60;99.90;;;;;;5020225;28;20049;-87
2022/06/05 12:00:17;;;;;;;5.78;4.60;;;23.60;99.90;;;;;;5029349;28;20056;-87
2022/06/05 12:02:53;;;;;;;5.40;4.90;;;23.70;99.90;;;;;;5030585;28;20059;-90
2022/06/05 12:05:49;;;;;;;5.75;4.50;;;23.70;99.90;;;;;;5031801;28;20424;-87
2022/06/05 12:08:23;;;;;;;5.40;4.90;;;23.80;99.90;;;;;;5037726;28;20045;-87
2022/06/05 12:11:19;;;;;;;5.07;4.63;;;23.90;99.90;;;;;;5034896;28;20045;-95
2022/06/05 12:14:04;;;;;;;5.88;4.50;;;23.70;99.90;;;;;;5041854;28;20041;-94
2022/06/05 12:16:41;;;;;;;5.43;4.93;;;23.90;99.90;;;;;;5041998;28;20048;-93
2022/06/05 12:19:32;;;;;;;4.53;4.13;;;23.90;99.90;;;;;;5056257;28;20045;-95
2022/06/05 12:22:35;;;;;;;4.65;4.25;;;23.70;99.90;;;;;;5040068;28;20041;-94
2022/06/05 12:25:10;;;;;;;6.68;4.82;;;23.80;99.90;;;;;;5056775;28;20045;-94
2022/06/05 12:27:59;;;;;;;5.22;4.18;;;23.80;99.90;;;;;;5038973;28;20040;-94
2022/06/05 12:30:37;;;;;;;5.00;4.60;;;24.10;99.90;;;;;;5037365;28;20041;-96
2022/06/05 12:33:39;;;;;;;7.32;5.07;;;23.80;99.90;;;;;;5040755;28;20152;-95
2022/06/05 12:36:48;;;;;;;5.22;4.70;;;23.60;99.90;;;;;;5039451;28;20036;-95
2022/06/05 12:39:36;;;;;;;5.10;4.65;;;22.90;99.90;;;;;;5029996;28;20040;-94
2022/06/05 12:42:19;;;;;;;5.07;4.68;;;23.90;99.90;;;;;;5039267;28;20099;-95
2022/06/05 12:45:17;;;;;;;5.68;4.40;;;23.80;99.90;;;;;;5035304;28;20156;-94
2022/06/05 12:47:59;;;;;;;5.45;4.80;;;23.60;99.90;;;;;;5035635;28;20045;-94
2022/06/05 12:50:54;;;;;;;5.63;5.00;;;23.40;99.90;;;;;;5040087;28;20045;-95
2022/06/05 12:53:35;;;;;;;;;;;23.60;99.90;;;;;;5037837;28;20114;-94
2022/06/05 12:56:26;;;;;;;4.80;4.40;;;23.50;99.90;;;;;;5039016;28;19920;-94
2022/06/05 12:59:14;;;;;;;5.13;4.68;;;23.40;99.90;;;;;;5042190;28;20049;-93
2022/06/05 13:01:50;;;;;;;5.03;4.47;;;23.40;99.90;;;;;;5041217;28;20045;-94
2022/06/05 13:04:48;;;;;;;5.20;4.80;;;23.20;99.90;;;;;;5040392;28;20053;-95
2022/06/05 13:07:27;;;;;;;4.68;4.20;;;23.50;99.90;;;;;;5035675;28;20111;-93
2022/06/05 13:10:16;;;;;;;4.68;4.28;;;23.30;99.90;;;;;;5034524;28;20132;-95
2022/06/05 13:13:15;;;;;;;4.63;4.22;;;23.40;99.90;;;;;;5043165;28;20045;-95
2022/06/05 13:16:03;;;;;;;5.45;4.85;;;23.40;99.90;;;;;;5033559;28;20064;-94
2022/06/05 13:18:57;;;;;;;5.50;4.20;;;23.40;99.90;;;;;;5033989;28;20049;-94
2022/06/05 13:21:29;;;;;;;4.77;4.30;;;23.40;99.90;;;;;;5040401;28;20040;-93
2022/06/05 13:24:40;;;;;;;4.90;4.50;;;23.50;99.90;;;;;;5042986;28;20049;-94
2022/06/05 13:27:26;;;;;;;5.25;4.70;;;23.40;99.90;;;;;;5015438;28;20107;-95
2022/06/05 13:30:14;;;;;;;4.68;4.28;;;23.40;99.90;;;;;;5044351;28;20045;-94
2022/06/05 13:33:10;;;;;;;4.93;4.28;;;23.50;99.90;;;;;;5041742;28;20041;-93
2022/06/05 13:36:15;;;;;;;4.65;4.25;;;23.50;99.90;;;;;;5036443;28;20091;-93
2022/06/05 13:39:06;;;;;;;5.47;4.65;;;23.80;99.90;;;;;;5008320;28;20079;-95
2022/06/05 13:41:35;;;;;;;5.05;4.53;;;23.80;99.90;;;;;;5032610;28;20041;-94
2022/06/05 13:44:15;;;;;;;9.32;4.53;;;23.80;99.90;;;;;;5033810;28;20051;-94
2022/06/05 13:47:00;;;;;;;4.78;4.38;;;23.70;99.90;;;;;;5034295;28;20053;-94
2022/06/05 13:49:56;;;;;;;5.95;4.20;;;23.80;99.90;;;;;;5042701;28;20053;-94
2022/06/05 13:52:28;;;;;;;4.80;4.40;;;23.90;99.90;;;;;;5038060;28;20049;-93